sensor_id;sensor_type;location;lat;lon;timestamp;P1;durP1;ratioP1;P2;durP2;ratioP2
3085;SDS011;52812;48.960;9.108;2023-10-31T00:01:34;1.40;;;1.30;;
3085;SDS011;52812;48.960;9.108;2023-10-31T00:03:59;2.97;;;1.77;;
3085;SDS011;52812;48.960;9.108;2023-10-31T00:06:25;2.10;;;1.40;;
3085;SDS011;52812;48.960;9.108;2023-10-31T00:08:50;1.43;;;1.33;;
3085;SDS011;52812;48.960;9.108;2023-10-31T00:11:16;1.60;;;1.50;;
3085;SDS011;52812;48.960;9.108;2023-10-31T00:13:42;1.67;;;1.57;;
3085;SDS011;52812;48.960;9.108;2023-10-31T00:16:07;1.40;;;1.30;;
3085;SDS011;52812;48.960;9.108;2023-10-31T00:18:33;1.60;;;1.30;;
3085;SDS011;52812;48.960;9.108;2023-10-31T00:20:58;1.80;;;1.40;;
3085;SDS011;52812;48.960;9.108;2023-10-31T00:23:24;1.00;;;1.00;;
3085;SDS011;52812;48.960;9.108;2023-10-31T00:25:49;2.80;;;1.10;;
3085;SDS011;52812;48.960;9.108;2023-10-31T00:28:15;2.33;;;0.90;;
3085;SDS011;52812;48.960;9.108;2023-10-31T00:30:40;1.17;;;1.07;;
3085;SDS011;52812;48.960;9.108;2023-10-31T00:33:06;1.13;;;1.03;;
3085;SDS011;52812;48.960;9.108;2023-10-31T00:35:31;1.20;;;1.10;;
3085;SDS011;52812;48.960;9.108;2023-10-31T00:37:57;1.17;;;0.93;;
3085;SDS011;52812;48.960;9.108;2023-10-31T00:40:22;1.30;;;1.20;;
3085;SDS011;52812;48.960;9.108;2023-10-31T00:42:48;1.37;;;1.10;;
3085;SDS011;52812;48.960;9.108;2023-10-31T00:45:14;1.00;;;0.90;;
3085;SDS011;52812;48.960;9.108;2023-10-31T00:47:39;1.50;;;1.10;;
3085;SDS011;52812;48.960;9.108;2023-10-31T00:50:05;1.33;;;1.10;;
3085;SDS011;52812;48.960;9.108;2023-10-31T00:52:31;1.10;;;1.00;;
3085;SDS011;52812;48.960;9.108;2023-10-31T00:54:56;1.37;;;1.20;;
3085;SDS011;52812;48.960;9.108;2023-10-31T00:57:22;1.20;;;1.00;;
3085;SDS011;52812;48.960;9.108;2023-10-31T00:59:47;2.10;;;1.00;;
3085;SDS011;52812;48.960;9.108;2023-10-31T01:02:13;2.83;;;1.10;;
3085;SDS011;52812;48.960;9.108;2023-10-31T01:04:38;1.33;;;1.20;;
3085;SDS011;52812;48.960;9.108;2023-10-31T01:07:04;1.67;;;1.20;;
3085;SDS011;52812;48.960;9.108;2023-10-31T01:09:30;1.43;;;1.33;;
3085;SDS011;52812;48.960;9.108;2023-10-31T01:11:55;1.40;;;1.20;;
3085;SDS011;52812;48.960;9.108;2023-10-31T01:14:21;2.43;;;1.07;;
3085;SDS011;52812;48.960;9.108;2023-10-31T01:16:46;2.30;;;1.50;;
3085;SDS011;52812;48.960;9.108;2023-10-31T01:19:12;2.27;;;1.10;;
3085;SDS011;52812;48.960;9.108;2023-10-31T01:21:37;1.20;;;1.07;;
3085;SDS011;52812;48.960;9.108;2023-10-31T01:24:03;2.53;;;1.40;;
3085;SDS011;52812;48.960;9.108;2023-10-31T01:26:29;1.20;;;1.10;;
3085;SDS011;52812;48.960;9.108;2023-10-31T01:28:54;1.20;;;1.10;;
3085;SDS011;52812;48.960;9.108;2023-10-31T01:31:20;1.37;;;1.20;;
3085;SDS011;52812;48.960;9.108;2023-10-31T01:33:46;2.33;;;1.20;;
3085;SDS011;52812;48.960;9.108;2023-10-31T01:36:12;2.03;;;1.43;;
3085;SDS011;52812;48.960;9.108;2023-10-31T01:38:39;1.23;;;1.13;;
3085;SDS011;52812;48.960;9.108;2023-10-31T01:41:04;1.77;;;1.30;;
3085;SDS011;52812;48.960;9.108;2023-10-31T01:43:34;4.30;;;1.83;;
3085;SDS011;52812;48.960;9.108;2023-10-31T01:46:01;1.47;;;1.30;;
3085;SDS011;52812;48.960;9.108;2023-10-31T01:48:27;1.43;;;1.10;;
3085;SDS011;52812;48.960;9.108;2023-10-31T01:50:55;2.27;;;1.40;;
3085;SDS011;52812;48.960;9.108;2023-10-31T01:53:23;2.00;;;1.50;;
3085;SDS011;52812;48.960;9.108;2023-10-31T01:55:51;1.53;;;1.30;;
3085;SDS011;52812;48.960;9.108;2023-10-31T01:58:20;3.47;;;1.10;;
3085;SDS011;52812;48.960;9.108;2023-10-31T02:00:50;1.93;;;1.30;;
3085;SDS011;52812;48.960;9.108;2023-10-31T02:03:17;1.47;;;1.37;;
3085;SDS011;52812;48.960;9.108;2023-10-31T02:05:43;1.67;;;1.30;;
3085;SDS011;52812;48.960;9.108;2023-10-31T02:08:08;1.30;;;1.20;;
3085;SDS011;52812;48.960;9.108;2023-10-31T02:10:34;1.40;;;1.10;;
3085;SDS011;52812;48.960;9.108;2023-10-31T02:13:10;1.37;;;1.27;;
3085;SDS011;52812;48.960;9.108;2023-10-31T02:15:39;1.90;;;1.10;;
3085;SDS011;52812;48.960;9.108;2023-10-31T02:18:05;2.60;;;1.30;;
3085;SDS011;52812;48.960;9.108;2023-10-31T02:20:31;2.63;;;1.30;;
3085;SDS011;52812;48.960;9.108;2023-10-31T02:22:57;3.33;;;1.20;;
3085;SDS011;52812;48.960;9.108;2023-10-31T02:25:22;2.73;;;1.20;;
3085;SDS011;52812;48.960;9.108;2023-10-31T02:27:48;2.93;;;1.30;;
3085;SDS011;52812;48.960;9.108;2023-10-31T02:30:13;1.77;;;1.23;;
3085;SDS011;52812;48.960;9.108;2023-10-31T02:32:39;1.37;;;1.00;;
3085;SDS011;52812;48.960;9.108;2023-10-31T02:35:06;1.30;;;1.10;;
3085;SDS011;52812;48.960;9.108;2023-10-31T02:37:32;3.57;;;1.40;;
3085;SDS011;52812;48.960;9.108;2023-10-31T02:39:58;1.47;;;1.20;;
3085;SDS011;52812;48.960;9.108;2023-10-31T02:42:24;1.20;;;1.10;;
3085;SDS011;52812;48.960;9.108;2023-10-31T02:44:50;1.20;;;1.10;;
3085;SDS011;52812;48.960;9.108;2023-10-31T02:47:16;1.20;;;1.10;;
3085;SDS011;52812;48.960;9.108;2023-10-31T02:49:42;1.30;;;1.20;;
3085;SDS011;52812;48.960;9.108;2023-10-31T02:52:07;1.40;;;1.30;;
3085;SDS011;52812;48.960;9.108;2023-10-31T02:54:33;1.33;;;1.23;;
3085;SDS011;52812;48.960;9.108;2023-10-31T02:56:58;1.20;;;1.10;;
3085;SDS011;52812;48.960;9.108;2023-10-31T02:59:24;2.20;;;1.30;;
3085;SDS011;52812;48.960;9.108;2023-10-31T03:01:49;1.43;;;1.30;;
3085;SDS011;52812;48.960;9.108;2023-10-31T03:04:15;3.50;;;2.70;;
3085;SDS011;52812;48.960;9.108;2023-10-31T03:06:40;3.53;;;1.40;;
3085;SDS011;52812;48.960;9.108;2023-10-31T03:09:06;2.00;;;1.33;;
3085;SDS011;52812;48.960;9.108;2023-10-31T03:11:32;1.23;;;1.13;;
3085;SDS011;52812;48.960;9.108;2023-10-31T03:13:58;3.10;;;1.17;;
3085;SDS011;52812;48.960;9.108;2023-10-31T03:16:24;1.97;;;1.30;;
3085;SDS011;52812;48.960;9.108;2023-10-31T03:18:50;1.50;;;1.30;;
3085;SDS011;52812;48.960;9.108;2023-10-31T03:21:16;1.40;;;1.20;;
3085;SDS011;52812;48.960;9.108;2023-10-31T03:23:47;2.80;;;1.10;;
3085;SDS011;52812;48.960;9.108;2023-10-31T03:26:14;1.30;;;1.20;;
3085;SDS011;52812;48.960;9.108;2023-10-31T03:28:40;1.77;;;1.40;;
3085;SDS011;52812;48.960;9.108;2023-10-31T03:31:07;1.67;;;1.20;;
3085;SDS011;52812;48.960;9.108;2023-10-31T03:33:34;2.67;;;1.10;;
3085;SDS011;52812;48.960;9.108;2023-10-31T03:35:59;1.40;;;1.20;;
3085;SDS011;52812;48.960;9.108;2023-10-31T03:38:25;1.77;;;1.10;;
3085;SDS011;52812;48.960;9.108;2023-10-31T03:40:50;1.40;;;1.30;;
3085;SDS011;52812;48.960;9.108;2023-10-31T03:43:16;1.40;;;1.13;;
3085;SDS011;52812;48.960;9.108;2023-10-31T03:45:41;1.87;;;1.10;;
3085;SDS011;52812;48.960;9.108;2023-10-31T03:48:07;1.03;;;1.00;;
3085;SDS011;52812;48.960;9.108;2023-10-31T03:50:32;1.20;;;1.10;;
3085;SDS011;52812;48.960;9.108;2023-10-31T03:52:58;2.80;;;1.10;;
3085;SDS011;52812;48.960;9.108;2023-10-31T03:55:23;1.20;;;1.10;;
3085;SDS011;52812;48.960;9.108;2023-10-31T03:57:50;1.43;;;1.33;;
3085;SDS011;52812;48.960;9.108;2023-10-31T04:00:15;1.47;;;1.20;;
3085;SDS011;52812;48.960;9.108;2023-10-31T04:02:41;0.93;;;0.93;;
3085;SDS011;52812;48.960;9.108;2023-10-31T04:05:07;1.40;;;1.10;;
3085;SDS011;52812;48.960;9.108;2023-10-31T04:07:33;1.30;;;1.20;;
3085;SDS011;52812;48.960;9.108;2023-10-31T04:09:58;1.63;;;1.10;;
3085;SDS011;52812;48.960;9.108;2023-10-31T04:12:24;1.30;;;1.20;;
3085;SDS011;52812;48.960;9.108;2023-10-31T04:14:49;1.70;;;1.20;;
3085;SDS011;52812;48.960;9.108;2023-10-31T04:17:15;1.33;;;1.20;;
3085;SDS011;52812;48.960;9.108;2023-10-31T04:19:40;1.20;;;1.10;;
3085;SDS011;52812;48.960;9.108;2023-10-31T04:22:06;1.80;;;1.30;;
3085;SDS011;52812;48.960;9.108;2023-10-31T04:24:31;2.40;;;1.47;;
3085;SDS011;52812;48.960;9.108;2023-10-31T04:26:57;1.50;;;1.40;;
3085;SDS011;52812;48.960;9.108;2023-10-31T04:29:23;2.40;;;1.87;;
3085;SDS011;52812;48.960;9.108;2023-10-31T04:31:48;1.93;;;1.17;;
3085;SDS011;52812;48.960;9.108;2023-10-31T04:34:14;1.83;;;1.20;;
3085;SDS011;52812;48.960;9.108;2023-10-31T04:36:39;1.70;;;1.20;;
3085;SDS011;52812;48.960;9.108;2023-10-31T04:39:05;1.47;;;1.10;;
3085;SDS011;52812;48.960;9.108;2023-10-31T04:41:31;1.87;;;1.33;;
3085;SDS011;52812;48.960;9.108;2023-10-31T04:43:56;1.60;;;1.40;;
3085;SDS011;52812;48.960;9.108;2023-10-31T04:46:22;1.83;;;1.63;;
3085;SDS011;52812;48.960;9.108;2023-10-31T04:48:51;4.43;;;1.30;;
3085;SDS011;52812;48.960;9.108;2023-10-31T04:51:17;2.13;;;1.20;;
3085;SDS011;52812;48.960;9.108;2023-10-31T04:53:43;2.20;;;1.40;;
3085;SDS011;52812;48.960;9.108;2023-10-31T04:56:12;1.40;;;1.30;;
3085;SDS011;52812;48.960;9.108;2023-10-31T04:58:41;1.23;;;1.13;;
3085;SDS011;52812;48.960;9.108;2023-10-31T05:01:08;4.60;;;1.50;;
3085;SDS011;52812;48.960;9.108;2023-10-31T05:03:34;2.33;;;1.47;;
3085;SDS011;52812;48.960;9.108;2023-10-31T05:05:59;1.97;;;1.50;;
3085;SDS011;52812;48.960;9.108;2023-10-31T05:08:25;1.37;;;1.10;;
3085;SDS011;52812;48.960;9.108;2023-10-31T05:10:50;1.47;;;1.20;;
3085;SDS011;52812;48.960;9.108;2023-10-31T05:13:16;1.87;;;1.23;;
3085;SDS011;52812;48.960;9.108;2023-10-31T05:15:41;2.10;;;1.30;;
3085;SDS011;52812;48.960;9.108;2023-10-31T05:18:07;1.23;;;1.10;;
3085;SDS011;52812;48.960;9.108;2023-10-31T05:20:33;1.50;;;1.00;;
3085;SDS011;52812;48.960;9.108;2023-10-31T05:22:58;1.53;;;1.17;;
3085;SDS011;52812;48.960;9.108;2023-10-31T05:25:24;7.87;;;1.20;;
3085;SDS011;52812;48.960;9.108;2023-10-31T05:27:49;3.30;;;1.10;;
3085;SDS011;52812;48.960;9.108;2023-10-31T05:30:15;1.70;;;1.23;;
3085;SDS011;52812;48.960;9.108;2023-10-31T05:32:40;3.33;;;1.10;;
3085;SDS011;52812;48.960;9.108;2023-10-31T05:35:06;2.40;;;1.30;;
3085;SDS011;52812;48.960;9.108;2023-10-31T05:37:31;4.50;;;1.47;;
3085;SDS011;52812;48.960;9.108;2023-10-31T05:39:57;1.53;;;1.10;;
3085;SDS011;52812;48.960;9.108;2023-10-31T05:42:23;1.10;;;1.00;;
3085;SDS011;52812;48.960;9.108;2023-10-31T05:44:49;1.20;;;1.10;;
3085;SDS011;52812;48.960;9.108;2023-10-31T05:47:15;1.60;;;1.40;;
3085;SDS011;52812;48.960;9.108;2023-10-31T05:49:42;1.20;;;1.10;;
3085;SDS011;52812;48.960;9.108;2023-10-31T05:52:08;1.40;;;1.30;;
3085;SDS011;52812;48.960;9.108;2023-10-31T05:54:34;2.20;;;1.30;;
3085;SDS011;52812;48.960;9.108;2023-10-31T05:56:59;1.77;;;1.40;;
3085;SDS011;52812;48.960;9.108;2023-10-31T05:59:25;1.20;;;1.10;;
3085;SDS011;52812;48.960;9.108;2023-10-31T06:01:50;1.20;;;1.10;;
3085;SDS011;52812;48.960;9.108;2023-10-31T06:04:16;1.60;;;1.13;;
3085;SDS011;52812;48.960;9.108;2023-10-31T06:06:42;2.80;;;1.10;;
3085;SDS011;52812;48.960;9.108;2023-10-31T06:09:07;1.30;;;1.20;;
3085;SDS011;52812;48.960;9.108;2023-10-31T06:11:35;1.83;;;1.40;;
3085;SDS011;52812;48.960;9.108;2023-10-31T06:14:01;1.10;;;1.00;;
3085;SDS011;52812;48.960;9.108;2023-10-31T06:16:26;1.33;;;1.13;;
3085;SDS011;52812;48.960;9.108;2023-10-31T06:18:52;4.53;;;1.10;;
3085;SDS011;52812;48.960;9.108;2023-10-31T06:21:17;1.30;;;1.17;;
3085;SDS011;52812;48.960;9.108;2023-10-31T06:23:43;1.20;;;1.00;;
3085;SDS011;52812;48.960;9.108;2023-10-31T06:26:11;1.40;;;1.00;;
3085;SDS011;52812;48.960;9.108;2023-10-31T06:28:36;2.53;;;1.20;;
3085;SDS011;52812;48.960;9.108;2023-10-31T06:31:02;10.30;;;2.70;;
3085;SDS011;52812;48.960;9.108;2023-10-31T06:33:28;2.30;;;1.30;;
3085;SDS011;52812;48.960;9.108;2023-10-31T06:35:54;3.00;;;2.03;;
3085;SDS011;52812;48.960;9.108;2023-10-31T06:38:22;2.30;;;1.53;;
3085;SDS011;52812;48.960;9.108;2023-10-31T06:40:47;1.60;;;1.30;;
3085;SDS011;52812;48.960;9.108;2023-10-31T06:43:13;1.67;;;1.10;;
3085;SDS011;52812;48.960;9.108;2023-10-31T06:45:38;2.47;;;1.40;;
3085;SDS011;52812;48.960;9.108;2023-10-31T06:48:04;1.73;;;1.20;;
3085;SDS011;52812;48.960;9.108;2023-10-31T06:50:32;2.10;;;1.90;;
3085;SDS011;52812;48.960;9.108;2023-10-31T06:52:58;1.53;;;1.20;;
3085;SDS011;52812;48.960;9.108;2023-10-31T06:55:23;1.30;;;1.00;;
3085;SDS011;52812;48.960;9.108;2023-10-31T06:57:49;1.47;;;1.20;;
3085;SDS011;52812;48.960;9.108;2023-10-31T07:00:14;4.70;;;1.40;;
3085;SDS011;52812;48.960;9.108;2023-10-31T07:02:40;1.57;;;1.20;;
3085;SDS011;52812;48.960;9.108;2023-10-31T07:05:06;1.43;;;1.17;;
3085;SDS011;52812;48.960;9.108;2023-10-31T07:07:32;3.23;;;1.43;;
3085;SDS011;52812;48.960;9.108;2023-10-31T07:09:57;1.50;;;1.30;;
3085;SDS011;52812;48.960;9.108;2023-10-31T07:12:23;2.00;;;1.40;;
3085;SDS011;52812;48.960;9.108;2023-10-31T07:14:48;1.40;;;1.10;;
3085;SDS011;52812;48.960;9.108;2023-10-31T07:17:14;1.50;;;1.20;;
3085;SDS011;52812;48.960;9.108;2023-10-31T07:19:40;1.40;;;1.30;;
3085;SDS011;52812;48.960;9.108;2023-10-31T07:22:05;2.23;;;1.50;;
3085;SDS011;52812;48.960;9.108;2023-10-31T07:24:31;2.30;;;1.20;;
3085;SDS011;52812;48.960;9.108;2023-10-31T07:26:56;1.00;;;1.00;;
3085;SDS011;52812;48.960;9.108;2023-10-31T07:29:22;1.70;;;1.40;;
3085;SDS011;52812;48.960;9.108;2023-10-31T07:31:47;1.30;;;1.20;;
3085;SDS011;52812;48.960;9.108;2023-10-31T07:34:13;3.13;;;1.60;;
3085;SDS011;52812;48.960;9.108;2023-10-31T07:36:38;1.53;;;1.33;;
3085;SDS011;52812;48.960;9.108;2023-10-31T07:39:06;1.43;;;1.30;;
3085;SDS011;52812;48.960;9.108;2023-10-31T07:41:32;1.50;;;1.30;;
3085;SDS011;52812;48.960;9.108;2023-10-31T07:43:58;2.50;;;1.53;;
3085;SDS011;52812;48.960;9.108;2023-10-31T07:46:23;7.23;;;1.83;;
3085;SDS011;52812;48.960;9.108;2023-10-31T07:48:49;5.90;;;2.40;;
3085;SDS011;52812;48.960;9.108;2023-10-31T07:51:15;4.20;;;2.17;;
3085;SDS011;52812;48.960;9.108;2023-10-31T07:53:41;13.40;;;7.07;;
3085;SDS011;52812;48.960;9.108;2023-10-31T07:56:14;17.40;;;9.13;;
3085;SDS011;52812;48.960;9.108;2023-10-31T07:58:41;23.30;;;14.83;;
3085;SDS011;52812;48.960;9.108;2023-10-31T08:01:06;12.53;;;9.83;;
3085;SDS011;52812;48.960;9.108;2023-10-31T08:03:35;9.27;;;7.10;;
3085;SDS011;52812;48.960;9.108;2023-10-31T08:06:02;3.77;;;3.47;;
3085;SDS011;52812;48.960;9.108;2023-10-31T08:08:29;3.13;;;2.83;;
3085;SDS011;52812;48.960;9.108;2023-10-31T08:10:54;2.70;;;2.50;;
3085;SDS011;52812;48.960;9.108;2023-10-31T08:13:22;2.93;;;2.73;;
3085;SDS011;52812;48.960;9.108;2023-10-31T08:15:47;2.93;;;2.70;;
3085;SDS011;52812;48.960;9.108;2023-10-31T08:18:13;3.20;;;2.80;;
3085;SDS011;52812;48.960;9.108;2023-10-31T08:20:38;3.27;;;1.90;;
3085;SDS011;52812;48.960;9.108;2023-10-31T08:23:05;1.97;;;1.77;;
3085;SDS011;52812;48.960;9.108;2023-10-31T08:25:31;1.47;;;1.10;;
3085;SDS011;52812;48.960;9.108;2023-10-31T08:27:56;3.80;;;1.10;;
3085;SDS011;52812;48.960;9.108;2023-10-31T08:30:22;1.57;;;1.20;;
3085;SDS011;52812;48.960;9.108;2023-10-31T08:32:47;1.90;;;1.37;;
3085;SDS011;52812;48.960;9.108;2023-10-31T08:35:13;3.40;;;1.30;;
3085;SDS011;52812;48.960;9.108;2023-10-31T08:37:39;6.53;;;1.30;;
3085;SDS011;52812;48.960;9.108;2023-10-31T08:40:04;2.00;;;1.37;;
3085;SDS011;52812;48.960;9.108;2023-10-31T08:42:30;3.73;;;1.37;;
3085;SDS011;52812;48.960;9.108;2023-10-31T08:44:56;2.80;;;1.13;;
3085;SDS011;52812;48.960;9.108;2023-10-31T08:47:21;1.20;;;1.10;;
3085;SDS011;52812;48.960;9.108;2023-10-31T08:49:48;2.07;;;1.27;;
3085;SDS011;52812;48.960;9.108;2023-10-31T08:52:13;3.00;;;1.53;;
3085;SDS011;52812;48.960;9.108;2023-10-31T08:54:39;2.07;;;1.33;;
3085;SDS011;52812;48.960;9.108;2023-10-31T08:57:04;2.20;;;1.47;;
3085;SDS011;52812;48.960;9.108;2023-10-31T08:59:30;7.70;;;1.50;;
3085;SDS011;52812;48.960;9.108;2023-10-31T09:01:56;1.60;;;1.20;;
3085;SDS011;52812;48.960;9.108;2023-10-31T09:04:21;1.67;;;1.20;;
3085;SDS011;52812;48.960;9.108;2023-10-31T09:06:47;1.40;;;1.10;;
3085;SDS011;52812;48.960;9.108;2023-10-31T09:09:12;1.60;;;1.30;;
3085;SDS011;52812;48.960;9.108;2023-10-31T09:11:38;4.37;;;2.00;;
3085;SDS011;52812;48.960;9.108;2023-10-31T09:14:04;4.43;;;1.47;;
3085;SDS011;52812;48.960;9.108;2023-10-31T09:16:29;5.33;;;2.20;;
3085;SDS011;52812;48.960;9.108;2023-10-31T09:18:55;5.40;;;2.00;;
3085;SDS011;52812;48.960;9.108;2023-10-31T09:21:20;1.63;;;1.10;;
3085;SDS011;52812;48.960;9.108;2023-10-31T09:23:46;2.80;;;1.33;;
3085;SDS011;52812;48.960;9.108;2023-10-31T09:26:12;2.67;;;1.33;;
3085;SDS011;52812;48.960;9.108;2023-10-31T09:28:38;2.10;;;1.27;;
3085;SDS011;52812;48.960;9.108;2023-10-31T09:31:05;2.43;;;1.60;;
3085;SDS011;52812;48.960;9.108;2023-10-31T09:33:31;2.43;;;1.20;;
3085;SDS011;52812;48.960;9.108;2023-10-31T09:35:56;5.00;;;1.30;;
3085;SDS011;52812;48.960;9.108;2023-10-31T09:38:22;3.87;;;1.40;;
3085;SDS011;52812;48.960;9.108;2023-10-31T09:40:48;3.60;;;1.20;;
3085;SDS011;52812;48.960;9.108;2023-10-31T09:43:14;2.40;;;1.60;;
3085;SDS011;52812;48.960;9.108;2023-10-31T09:45:40;2.03;;;1.30;;
3085;SDS011;52812;48.960;9.108;2023-10-31T09:48:06;1.87;;;1.30;;
3085;SDS011;52812;48.960;9.108;2023-10-31T09:50:32;5.97;;;1.50;;
3085;SDS011;52812;48.960;9.108;2023-10-31T09:52:59;2.17;;;1.30;;
3085;SDS011;52812;48.960;9.108;2023-10-31T09:55:26;2.70;;;1.37;;
3085;SDS011;52812;48.960;9.108;2023-10-31T09:57:52;5.07;;;1.80;;
3085;SDS011;52812;48.960;9.108;2023-10-31T10:00:18;5.10;;;2.20;;
3085;SDS011;52812;48.960;9.108;2023-10-31T10:02:44;5.53;;;1.70;;
3085;SDS011;52812;48.960;9.108;2023-10-31T10:05:09;4.03;;;1.80;;
3085;SDS011;52812;48.960;9.108;2023-10-31T10:07:36;4.40;;;1.50;;
3085;SDS011;52812;48.960;9.108;2023-10-31T10:10:09;3.30;;;1.40;;
3085;SDS011;52812;48.960;9.108;2023-10-31T10:12:38;2.40;;;1.37;;
3085;SDS011;52812;48.960;9.108;2023-10-31T10:15:07;2.03;;;1.60;;
3085;SDS011;52812;48.960;9.108;2023-10-31T10:17:33;2.90;;;1.57;;
3085;SDS011;52812;48.960;9.108;2023-10-31T10:22:31;1.67;;;1.37;;
3085;SDS011;52812;48.960;9.108;2023-10-31T10:24:57;2.23;;;1.30;;
3085;SDS011;52812;48.960;9.108;2023-10-31T10:27:22;5.33;;;1.80;;
3085;SDS011;52812;48.960;9.108;2023-10-31T10:29:49;2.27;;;1.70;;
3085;SDS011;52812;48.960;9.108;2023-10-31T10:32:19;4.53;;;1.50;;
3085;SDS011;52812;48.960;9.108;2023-10-31T10:34:45;3.73;;;1.47;;
3085;SDS011;52812;48.960;9.108;2023-10-31T10:37:11;2.80;;;1.37;;
3085;SDS011;52812;48.960;9.108;2023-10-31T10:39:37;2.00;;;1.40;;
3085;SDS011;52812;48.960;9.108;2023-10-31T10:42:06;3.63;;;1.57;;
3085;SDS011;52812;48.960;9.108;2023-10-31T10:44:36;3.10;;;1.20;;
3085;SDS011;52812;48.960;9.108;2023-10-31T10:47:06;3.57;;;1.20;;
3085;SDS011;52812;48.960;9.108;2023-10-31T10:49:33;2.27;;;1.40;;
3085;SDS011;52812;48.960;9.108;2023-10-31T10:54:37;3.73;;;1.50;;
3085;SDS011;52812;48.960;9.108;2023-10-31T11:00:03;6.03;;;2.53;;
3085;SDS011;52812;48.960;9.108;2023-10-31T11:02:30;3.30;;;1.50;;
3085;SDS011;52812;48.960;9.108;2023-10-31T11:04:57;2.97;;;1.40;;
3085;SDS011;52812;48.960;9.108;2023-10-31T11:07:24;2.40;;;1.30;;
3085;SDS011;52812;48.960;9.108;2023-10-31T11:09:53;2.97;;;1.27;;
3085;SDS011;52812;48.960;9.108;2023-10-31T11:12:21;5.23;;;1.37;;
3085;SDS011;52812;48.960;9.108;2023-10-31T11:14:47;3.70;;;1.40;;
3085;SDS011;52812;48.960;9.108;2023-10-31T11:17:22;3.83;;;1.40;;
3085;SDS011;52812;48.960;9.108;2023-10-31T11:19:51;3.47;;;1.30;;
3085;SDS011;52812;48.960;9.108;2023-10-31T11:22:19;3.20;;;1.20;;
3085;SDS011;52812;48.960;9.108;2023-10-31T11:24:45;4.13;;;1.37;;
3085;SDS011;52812;48.960;9.108;2023-10-31T11:27:10;1.70;;;1.30;;
3085;SDS011;52812;48.960;9.108;2023-10-31T11:29:36;5.50;;;1.30;;
3085;SDS011;52812;48.960;9.108;2023-10-31T11:32:02;1.93;;;0.97;;
3085;SDS011;52812;48.960;9.108;2023-10-31T11:34:28;2.47;;;1.20;;
3085;SDS011;52812;48.960;9.108;2023-10-31T11:37:40;1.63;;;1.10;;
3085;SDS011;52812;48.960;9.108;2023-10-31T11:42:43;1.60;;;1.13;;
3085;SDS011;52812;48.960;9.108;2023-10-31T11:45:12;2.50;;;1.30;;
3085;SDS011;52812;48.960;9.108;2023-10-31T11:47:47;3.10;;;1.30;;
3085;SDS011;52812;48.960;9.108;2023-10-31T11:50:14;2.50;;;1.30;;
3085;SDS011;52812;48.960;9.108;2023-10-31T11:52:40;1.57;;;1.00;;
3085;SDS011;52812;48.960;9.108;2023-10-31T11:55:12;1.80;;;1.23;;
3085;SDS011;52812;48.960;9.108;2023-10-31T11:57:40;4.30;;;1.30;;
3085;SDS011;52812;48.960;9.108;2023-10-31T12:00:06;2.80;;;1.10;;
3085;SDS011;52812;48.960;9.108;2023-10-31T12:02:35;2.27;;;1.30;;
3085;SDS011;52812;48.960;9.108;2023-10-31T12:05:10;2.97;;;1.23;;
3085;SDS011;52812;48.960;9.108;2023-10-31T12:07:41;2.10;;;1.30;;
3085;SDS011;52812;48.960;9.108;2023-10-31T12:10:10;2.50;;;1.50;;
3085;SDS011;52812;48.960;9.108;2023-10-31T12:12:37;2.60;;;1.43;;
3085;SDS011;52812;48.960;9.108;2023-10-31T12:15:09;2.07;;;1.30;;
3085;SDS011;52812;48.960;9.108;2023-10-31T12:17:35;4.23;;;1.30;;
3085;SDS011;52812;48.960;9.108;2023-10-31T12:20:08;3.33;;;1.43;;
3085;SDS011;52812;48.960;9.108;2023-10-31T12:22:34;1.97;;;1.40;;
3085;SDS011;52812;48.960;9.108;2023-10-31T12:25:04;3.80;;;1.50;;
3085;SDS011;52812;48.960;9.108;2023-10-31T12:27:47;2.10;;;1.63;;
3085;SDS011;52812;48.960;9.108;2023-10-31T12:30:15;2.43;;;1.80;;
3085;SDS011;52812;48.960;9.108;2023-10-31T12:32:42;2.40;;;1.50;;
3085;SDS011;52812;48.960;9.108;2023-10-31T12:35:09;3.00;;;2.00;;
3085;SDS011;52812;48.960;9.108;2023-10-31T12:37:42;2.10;;;1.80;;
3085;SDS011;52812;48.960;9.108;2023-10-31T12:40:10;3.67;;;2.30;;
3085;SDS011;52812;48.960;9.108;2023-10-31T12:42:37;4.23;;;2.40;;
3085;SDS011;52812;48.960;9.108;2023-10-31T12:45:03;6.00;;;2.80;;
3085;SDS011;52812;48.960;9.108;2023-10-31T12:47:30;5.00;;;2.57;;
3085;SDS011;52812;48.960;9.108;2023-10-31T12:50:05;3.40;;;2.30;;
3085;SDS011;52812;48.960;9.108;2023-10-31T12:55:18;3.93;;;2.53;;
3085;SDS011;52812;48.960;9.108;2023-10-31T12:57:48;4.40;;;2.70;;
3085;SDS011;52812;48.960;9.108;2023-10-31T13:00:15;3.97;;;2.80;;
3085;SDS011;52812;48.960;9.108;2023-10-31T13:02:43;6.27;;;3.50;;
3085;SDS011;52812;48.960;9.108;2023-10-31T13:07:37;5.37;;;3.07;;
3085;SDS011;52812;48.960;9.108;2023-10-31T13:10:02;5.80;;;2.90;;
3085;SDS011;52812;48.960;9.108;2023-10-31T13:12:30;5.60;;;3.10;;
3085;SDS011;52812;48.960;9.108;2023-10-31T13:14:55;4.33;;;2.90;;
3085;SDS011;52812;48.960;9.108;2023-10-31T13:17:21;5.60;;;3.57;;
3085;SDS011;52812;48.960;9.108;2023-10-31T13:19:46;6.10;;;3.63;;
3085;SDS011;52812;48.960;9.108;2023-10-31T13:22:12;5.77;;;3.60;;
3085;SDS011;52812;48.960;9.108;2023-10-31T13:24:37;6.40;;;3.03;;
3085;SDS011;52812;48.960;9.108;2023-10-31T13:27:05;4.83;;;3.03;;
3085;SDS011;52812;48.960;9.108;2023-10-31T13:29:31;6.50;;;3.67;;
3085;SDS011;52812;48.960;9.108;2023-10-31T13:31:58;7.73;;;3.90;;
3085;SDS011;52812;48.960;9.108;2023-10-31T13:34:23;4.87;;;2.83;;
3085;SDS011;52812;48.960;9.108;2023-10-31T13:36:49;5.53;;;3.00;;
3085;SDS011;52812;48.960;9.108;2023-10-31T13:39:15;4.67;;;2.10;;
3085;SDS011;52812;48.960;9.108;2023-10-31T13:41:40;2.10;;;1.90;;
3085;SDS011;52812;48.960;9.108;2023-10-31T13:44:06;4.23;;;2.00;;
3085;SDS011;52812;48.960;9.108;2023-10-31T13:46:31;3.10;;;2.03;;
3085;SDS011;52812;48.960;9.108;2023-10-31T13:48:57;2.60;;;2.07;;
3085;SDS011;52812;48.960;9.108;2023-10-31T13:51:22;2.07;;;1.40;;
3085;SDS011;52812;48.960;9.108;2023-10-31T13:53:48;1.83;;;1.40;;
3085;SDS011;52812;48.960;9.108;2023-10-31T13:56:15;6.00;;;1.57;;
3085;SDS011;52812;48.960;9.108;2023-10-31T13:58:42;1.90;;;1.70;;
3085;SDS011;52812;48.960;9.108;2023-10-31T14:01:07;1.40;;;1.30;;
3085;SDS011;52812;48.960;9.108;2023-10-31T14:03:33;2.13;;;1.20;;
3085;SDS011;52812;48.960;9.108;2023-10-31T14:05:58;3.50;;;1.30;;
3085;SDS011;52812;48.960;9.108;2023-10-31T14:08:24;2.50;;;1.20;;
3085;SDS011;52812;48.960;9.108;2023-10-31T14:10:50;3.27;;;1.30;;
3085;SDS011;52812;48.960;9.108;2023-10-31T14:13:15;2.07;;;1.30;;
3085;SDS011;52812;48.960;9.108;2023-10-31T14:15:41;2.67;;;1.33;;
3085;SDS011;52812;48.960;9.108;2023-10-31T14:18:07;3.03;;;1.60;;
3085;SDS011;52812;48.960;9.108;2023-10-31T14:20:33;1.60;;;1.50;;
3085;SDS011;52812;48.960;9.108;2023-10-31T14:22:58;1.90;;;1.70;;
3085;SDS011;52812;48.960;9.108;2023-10-31T14:25:24;3.20;;;1.87;;
3085;SDS011;52812;48.960;9.108;2023-10-31T14:27:49;2.17;;;1.70;;
3085;SDS011;52812;48.960;9.108;2023-10-31T14:30:15;2.90;;;2.00;;
3085;SDS011;52812;48.960;9.108;2023-10-31T14:32:40;2.97;;;1.60;;
3085;SDS011;52812;48.960;9.108;2023-10-31T14:35:06;3.10;;;1.80;;
3085;SDS011;52812;48.960;9.108;2023-10-31T14:37:33;3.63;;;1.90;;
3085;SDS011;52812;48.960;9.108;2023-10-31T14:39:59;2.10;;;1.50;;
3085;SDS011;52812;48.960;9.108;2023-10-31T14:42:25;3.83;;;2.00;;
3085;SDS011;52812;48.960;9.108;2023-10-31T14:44:51;1.80;;;1.60;;
3085;SDS011;52812;48.960;9.108;2023-10-31T14:47:17;4.93;;;2.40;;
3085;SDS011;52812;48.960;9.108;2023-10-31T14:49:43;2.73;;;2.23;;
3085;SDS011;52812;48.960;9.108;2023-10-31T14:52:09;3.40;;;2.20;;
3085;SDS011;52812;48.960;9.108;2023-10-31T14:54:35;3.43;;;1.90;;
3085;SDS011;52812;48.960;9.108;2023-10-31T14:57:01;3.20;;;2.10;;
3085;SDS011;52812;48.960;9.108;2023-10-31T14:59:27;3.87;;;1.80;;
3085;SDS011;52812;48.960;9.108;2023-10-31T15:01:53;2.27;;;1.80;;
3085;SDS011;52812;48.960;9.108;2023-10-31T15:04:18;1.97;;;1.83;;
3085;SDS011;52812;48.960;9.108;2023-10-31T15:06:44;2.60;;;1.80;;
3085;SDS011;52812;48.960;9.108;2023-10-31T15:09:09;2.20;;;2.00;;
3085;SDS011;52812;48.960;9.108;2023-10-31T15:11:35;4.97;;;2.90;;